createdAt,value
2018-12-05T00:01:23.288Z,77.32
2018-12-05T00:03:52.159Z,77.58
2018-12-05T00:06:20.635Z,77.43
2018-12-05T00:08:52.071Z,77.51
2018-12-05T00:11:21.003Z,77.38
2018-12-05T00:13:49.610Z,77.42
2018-12-05T00:16:18.181Z,77.21
2018-12-05T00:18:46.710Z,77.35
2018-12-05T00:21:15.405Z,77.29
2018-12-05T00:23:44.301Z,77.25
2018-12-05T00:26:12.796Z,77.50
2018-12-05T00:28:41.258Z,77.36
2018-12-05T00:31:09.802Z,77.25
2018-12-05T00:33:38.295Z,77.18
2018-12-05T00:36:06.795Z,77.23
2018-12-05T00:38:35.307Z,77.11
2018-12-05T00:41:05.516Z,77.49
2018-12-05T00:43:34.005Z,77.61
2018-12-05T00:46:03.811Z,77.23
2018-12-05T00:48:32.298Z,77.35
2018-12-05T00:51:00.764Z,77.25
2018-12-05T00:53:29.490Z,77.14
2018-12-05T00:55:58.162Z,77.19
2018-12-05T00:58:26.663Z,77.65
2018-12-05T01:00:55.208Z,77.34
2018-12-05T01:03:23.741Z,77.23
2018-12-05T01:05:52.254Z,77.25
2018-12-05T01:08:20.856Z,77.30
2018-12-05T01:10:49.371Z,77.05
2018-12-05T01:13:17.871Z,77.14
2018-12-05T01:15:46.381Z,76.84
2018-12-05T01:18:14.893Z,76.75
2018-12-05T01:20:43.395Z,77.08
2018-12-05T01:23:11.915Z,77.34
2018-12-05T01:25:40.490Z,77.56
2018-12-05T01:28:09.180Z,77.41
2018-12-05T01:30:37.662Z,77.24
2018-12-05T01:33:06.150Z,77.61
2018-12-05T01:35:34.767Z,77.35
2018-12-05T01:38:04.666Z,77.38
2018-12-05T01:40:33.161Z,77.37
2018-12-05T01:43:02.746Z,77.61
2018-12-05T01:45:31.488Z,77.62
2018-12-05T01:47:59.979Z,77.49
2018-12-05T01:50:28.475Z,77.45
2018-12-05T01:52:57.008Z,77.31
2018-12-05T01:55:25.520Z,77.63
2018-12-05T01:57:54.680Z,77.55
2018-12-05T02:00:23.195Z,77.68
2018-12-05T02:02:51.871Z,77.35
2018-12-05T02:05:20.362Z,77.38
2018-12-05T02:07:48.868Z,77.53
2018-12-05T02:10:17.377Z,77.69
2018-12-05T02:12:45.917Z,77.58
2018-12-05T02:15:14.425Z,77.51
2018-12-05T02:17:43.388Z,77.66
2018-12-05T02:20:11.946Z,77.69
2018-12-05T02:22:40.457Z,77.70
2018-12-05T02:25:09.372Z,77.51
2018-12-05T02:27:37.885Z,77.73
2018-12-05T02:30:06.878Z,77.97
2018-12-05T02:32:35.430Z,77.86
2018-12-05T02:35:05.264Z,78.39
2018-12-05T02:37:33.774Z,78.40
2018-12-05T02:40:03.793Z,78.28
2018-12-05T02:42:32.292Z,78.16
2018-12-05T02:45:00.806Z,78.17
2018-12-05T02:47:29.338Z,78.11
2018-12-05T02:49:57.823Z,77.96
2018-12-05T02:52:26.353Z,77.90
2018-12-05T02:54:55.072Z,78.15
2018-12-05T02:57:23.666Z,78.10
2018-12-05T02:59:52.249Z,78.08
2018-12-05T03:02:20.738Z,78.11
2018-12-05T03:04:49.280Z,78.33
2018-12-05T03:07:17.794Z,78.07
2018-12-05T03:09:46.726Z,78.25
2018-12-05T03:12:15.617Z,77.91
2018-12-05T03:14:44.132Z,78.11
2018-12-05T03:17:12.620Z,78.07
2018-12-05T03:19:41.144Z,77.98
2018-12-05T03:22:09.650Z,78.16
2018-12-05T03:24:38.427Z,77.93
2018-12-05T03:27:06.941Z,78.18
2018-12-05T03:29:35.430Z,78.19
2018-12-05T03:32:06.743Z,77.90
2018-12-05T03:34:35.259Z,77.93
2018-12-05T03:37:06.116Z,78.06
2018-12-05T03:39:34.672Z,77.93
2018-12-05T03:42:04.782Z,78.10
2018-12-05T03:44:33.361Z,78.08
2018-12-05T03:47:02.851Z,78.16
2018-12-05T03:49:31.855Z,78.29
2018-12-05T03:52:00.825Z,78.40
2018-12-05T03:54:29.344Z,78.33
2018-12-05T03:56:57.943Z,78.22
2018-12-05T03:59:26.474Z,78.17
2018-12-05T04:01:54.999Z,78.10
2018-12-05T04:04:23.634Z,78.24
2018-12-05T04:06:52.105Z,78.17
2018-12-05T04:09:20.607Z,78.15
2018-12-05T04:11:49.210Z,77.88
2018-12-05T04:14:17.857Z,77.93
2018-12-05T04:16:46.369Z,78.26
2018-12-05T04:19:14.958Z,78.26
2018-12-05T04:21:43.645Z,78.30
2018-12-05T04:24:12.243Z,78.52
2018-12-05T04:26:40.758Z,78.75
2018-12-05T04:29:09.440Z,78.79
2018-12-05T04:31:38.008Z,78.71
2018-12-05T04:34:06.505Z,78.73
2018-12-05T04:36:34.995Z,78.59
2018-12-05T04:39:09.201Z,78.47
2018-12-05T04:41:37.682Z,78.39
2018-12-05T04:44:06.322Z,78.30
2018-12-05T04:46:34.846Z,78.44
2018-12-05T04:49:04.541Z,78.57
2018-12-05T04:51:33.084Z,78.42
2018-12-05T04:54:03.177Z,78.28
2018-12-05T04:56:31.689Z,78.63
2018-12-05T04:59:00.282Z,78.31
2018-12-05T05:01:28.777Z,78.33
2018-12-05T05:03:57.292Z,78.24
2018-12-05T05:06:25.823Z,78.12
2018-12-05T05:08:54.325Z,78.15
2018-12-05T05:11:22.845Z,78.19
2018-12-05T05:13:51.284Z,78.22
2018-12-05T05:16:19.923Z,77.90
2018-12-05T05:18:48.631Z,77.96
2018-12-05T05:21:17.156Z,78.26
2018-12-05T05:23:45.906Z,78.07
2018-12-05T05:26:14.410Z,77.97
2018-12-05T05:28:42.930Z,78.04
2018-12-05T05:31:11.567Z,78.25
2018-12-05T05:33:40.490Z,78.30
2018-12-05T05:36:08.996Z,78.15
2018-12-05T05:38:38.379Z,78.33
2018-12-05T05:41:06.894Z,78.06
2018-12-05T05:43:35.454Z,78.37
2018-12-05T05:46:05.829Z,78.24
2018-12-05T05:48:34.394Z,78.19
2018-12-05T05:51:05.202Z,78.31
2018-12-05T05:53:33.720Z,78.07
2018-12-05T05:56:04.192Z,78.12
2018-12-05T05:58:32.985Z,78.16
2018-12-05T06:01:08.013Z,78.02
2018-12-05T06:03:36.544Z,78.08
2018-12-05T06:06:05.350Z,78.04
2018-12-05T06:08:33.939Z,78.21
2018-12-05T06:11:04.671Z,78.15
2018-12-05T06:13:33.177Z,78.30
2018-12-05T06:16:03.303Z,78.11
2018-12-05T06:18:32.189Z,77.97
2018-12-05T06:21:03.328Z,77.95
2018-12-05T06:23:31.918Z,78.33
2018-12-05T06:26:00.478Z,77.95
2018-12-05T06:28:28.999Z,77.88
2018-12-05T06:30:57.603Z,77.86
2018-12-05T06:33:26.237Z,78.07
2018-12-05T06:35:54.791Z,78.17
2018-12-05T06:38:23.314Z,77.89
2018-12-05T06:40:51.806Z,77.97
2018-12-05T06:43:20.407Z,77.63
2018-12-05T06:45:48.933Z,77.79
2018-12-05T06:48:17.460Z,77.68
2018-12-05T06:50:46.096Z,77.73
2018-12-05T06:53:14.708Z,77.87
2018-12-05T06:55:43.221Z,77.90
2018-12-05T06:58:11.831Z,77.88
2018-12-05T07:00:40.360Z,77.66
2018-12-05T07:03:08.873Z,77.75
2018-12-05T07:05:38.171Z,77.59
2018-12-05T07:08:06.740Z,77.53
2018-12-05T07:10:35.288Z,77.60
2018-12-05T07:13:06.146Z,77.43
2018-12-05T07:15:34.846Z,77.23
2018-12-05T07:18:06.045Z,77.09
2018-12-05T07:20:34.924Z,77.41
2018-12-05T07:23:05.596Z,77.41
2018-12-05T07:25:34.169Z,77.33
2018-12-05T07:28:05.015Z,77.40
2018-12-05T07:30:33.551Z,77.29
2018-12-05T07:33:04.006Z,77.25
2018-12-05T07:35:33.007Z,77.13
2018-12-05T07:38:03.214Z,77.03
2018-12-05T07:40:31.703Z,77.06
2018-12-05T07:43:00.446Z,76.89
2018-12-05T07:45:28.958Z,76.89
2018-12-05T07:47:57.434Z,77.13
2018-12-05T07:50:26.188Z,77.14
2018-12-05T07:52:54.753Z,76.69
2018-12-05T07:55:23.221Z,76.54
2018-12-05T07:57:51.756Z,76.60
2018-12-05T08:00:20.294Z,76.30
2018-12-05T08:02:49.067Z,76.65
2018-12-05T08:05:17.589Z,76.30
2018-12-05T08:07:46.322Z,76.37
2018-12-05T08:10:14.921Z,76.15
2018-12-05T08:12:43.430Z,76.30
2018-12-05T08:15:12.023Z,76.37
2018-12-05T08:17:40.566Z,76.35
2018-12-05T08:20:09.147Z,76.16
2018-12-05T08:22:38.004Z,76.32
2018-12-05T08:25:06.769Z,76.06
2018-12-05T08:27:35.340Z,75.82
2018-12-05T08:30:05.700Z,75.92
2018-12-05T08:32:34.216Z,75.76
2018-12-05T08:35:04.443Z,75.58
2018-12-05T08:37:33.500Z,75.38
2018-12-05T08:40:05.235Z,75.67
2018-12-05T08:42:33.768Z,75.36
2018-12-05T08:45:03.708Z,75.22
2018-12-05T08:47:33.861Z,75.18
2018-12-05T08:50:03.768Z,75.11
2018-12-05T08:52:32.337Z,75.23
2018-12-05T08:55:00.864Z,75.05
2018-12-05T08:57:30.343Z,74.77
2018-12-05T08:59:58.856Z,74.82
2018-12-05T09:02:27.362Z,74.41
2018-12-05T09:04:55.938Z,74.36
2018-12-05T09:07:24.463Z,74.46
2018-12-05T09:09:52.942Z,74.50
2018-12-05T09:12:21.577Z,74.39
2018-12-05T09:14:50.092Z,74.60
2018-12-05T09:17:18.571Z,74.38
2018-12-05T09:19:47.272Z,74.14
2018-12-05T09:22:15.892Z,73.96
2018-12-05T09:24:44.365Z,73.85
2018-12-05T09:27:12.940Z,73.39
2018-12-05T09:29:41.427Z,73.46
2018-12-05T09:32:09.957Z,73.47
2018-12-05T09:34:38.492Z,73.39
2018-12-05T09:37:06.985Z,72.74
2018-12-05T09:39:35.484Z,72.88
2018-12-05T09:42:05.598Z,72.75
2018-12-05T09:44:34.130Z,72.38
2018-12-05T09:47:03.691Z,72.68
2018-12-05T09:49:32.204Z,72.85
2018-12-05T09:52:00.976Z,72.29
2018-12-05T09:54:29.558Z,72.29
2018-12-05T09:56:58.151Z,72.15
2018-12-05T09:59:26.730Z,72.08
2018-12-05T10:01:55.271Z,71.61
2018-12-05T10:04:24.246Z,72.02
2018-12-05T10:06:52.731Z,71.41
2018-12-05T10:09:21.436Z,71.32
2018-12-05T10:11:49.943Z,70.93
2018-12-05T10:14:18.481Z,71.16
2018-12-05T10:16:47.188Z,70.65
2018-12-05T10:19:15.716Z,70.84
2018-12-05T10:21:44.357Z,70.59
2018-12-05T10:24:12.897Z,70.47
2018-12-05T10:26:41.466Z,70.03
2018-12-05T10:29:09.952Z,70.20
2018-12-05T10:31:44.049Z,69.91
2018-12-05T10:34:09.143Z,69.30
2018-12-05T10:36:37.633Z,69.42
2018-12-05T10:39:07.408Z,69.60
2018-12-05T10:41:35.935Z,69.66
2018-12-05T10:44:05.735Z,69.64
2018-12-05T10:46:34.493Z,69.71
2018-12-05T10:49:04.845Z,69.42
2018-12-05T10:51:33.369Z,69.26
2018-12-05T10:54:03.062Z,69.12
2018-12-05T10:56:31.574Z,69.29
2018-12-05T10:59:00.124Z,69.14
2018-12-05T11:01:33.919Z,68.91
2018-12-05T11:04:08.800Z,68.68
2018-12-05T11:06:42.606Z,68.79
2018-12-05T11:09:16.254Z,68.47
2018-12-05T11:11:49.811Z,68.49
2018-12-05T11:14:23.576Z,68.12
2018-12-05T11:16:57.238Z,68.22
2018-12-05T11:19:31.810Z,67.79
2018-12-05T11:22:05.570Z,67.82
2018-12-05T11:24:36.467Z,68.09
2018-12-05T11:27:05.650Z,67.44
2018-12-05T11:29:34.370Z,68.26
2018-12-05T11:32:04.892Z,68.28
2018-12-05T11:34:33.456Z,67.76
2018-12-05T11:37:04.158Z,67.98
2018-12-05T11:39:32.841Z,68.30
2018-12-05T11:42:03.511Z,68.37
2018-12-05T11:44:32.062Z,68.21
2018-12-05T11:47:00.925Z,68.40
2018-12-05T11:49:29.444Z,68.03
2018-12-05T11:51:57.942Z,68.33
2018-12-05T11:54:27.100Z,68.07
2018-12-05T11:56:55.612Z,68.07
2018-12-05T11:59:24.190Z,68.02
2018-12-05T12:01:52.752Z,67.80
2018-12-05T12:04:21.347Z,68.14
2018-12-05T12:06:49.843Z,67.79
2018-12-05T12:09:18.332Z,67.29
2018-12-05T12:11:46.844Z,67.65
2018-12-05T12:14:15.424Z,67.60
2018-12-05T12:16:44.001Z,67.46
2018-12-05T12:19:12.489Z,67.71
2018-12-05T12:21:43.449Z,67.62
2018-12-05T12:24:12.011Z,67.58
2018-12-05T12:26:40.677Z,67.36
2018-12-05T12:29:09.201Z,67.40
2018-12-05T12:31:37.738Z,67.49
2018-12-05T12:34:06.265Z,67.65
2018-12-05T12:36:35.846Z,67.61
2018-12-05T12:39:07.791Z,67.60
2018-12-05T12:41:36.315Z,67.45
2018-12-05T12:44:06.365Z,67.45
2018-12-05T12:46:34.873Z,67.55
2018-12-05T12:49:04.767Z,67.53
2018-12-05T12:51:33.296Z,67.41
2018-12-05T12:54:02.613Z,67.05
2018-12-05T12:56:31.428Z,67.51
2018-12-05T12:58:59.897Z,67.41
2018-12-05T13:01:28.415Z,67.60
2018-12-05T13:03:57.198Z,67.46
2018-12-05T13:06:25.690Z,67.74
2018-12-05T13:08:54.261Z,67.40
2018-12-05T13:11:22.930Z,67.55
2018-12-05T13:13:51.413Z,67.03
2018-12-05T13:16:19.997Z,67.49
2018-12-05T13:18:48.509Z,67.48
2018-12-05T13:21:17.020Z,67.35
2018-12-05T13:23:45.501Z,67.41
2018-12-05T13:26:14.053Z,67.30
2018-12-05T13:28:42.527Z,67.48
2018-12-05T13:31:11.131Z,67.48
2018-12-05T13:33:39.734Z,67.55
2018-12-05T13:36:08.588Z,67.45
2018-12-05T13:38:38.167Z,67.59
2018-12-05T13:41:06.680Z,67.69
2018-12-05T13:43:35.227Z,67.73
2018-12-05T13:46:05.546Z,68.04
2018-12-05T13:48:34.156Z,67.92
2018-12-05T13:51:03.770Z,68.00
2018-12-05T13:53:32.306Z,68.09
2018-12-05T13:56:00.793Z,67.77
2018-12-05T13:58:29.339Z,68.14
2018-12-05T14:00:57.850Z,68.10
2018-12-05T14:03:26.382Z,68.01
2018-12-05T14:05:55.008Z,68.22
2018-12-05T14:08:23.710Z,68.06
2018-12-05T14:10:52.312Z,68.21
2018-12-05T14:13:20.811Z,68.41
2018-12-05T14:15:49.344Z,67.69
2018-12-05T14:18:17.969Z,68.20
2018-12-05T14:20:46.608Z,68.28
2018-12-05T14:23:15.496Z,68.29
2018-12-05T14:25:44.099Z,68.30
2018-12-05T14:28:12.580Z,68.25
2018-12-05T14:30:42.092Z,68.22
2018-12-05T14:33:10.686Z,68.59
2018-12-05T14:35:39.190Z,68.22
2018-12-05T14:38:07.692Z,68.36
2018-12-05T14:40:36.199Z,68.30
2018-12-05T14:43:05.139Z,68.79
2018-12-05T14:45:33.680Z,69.21
2018-12-05T14:48:04.526Z,69.19
2018-12-05T14:50:33.130Z,69.41
2018-12-05T14:53:02.717Z,69.09
2018-12-05T14:55:31.275Z,69.64
2018-12-05T14:57:59.841Z,69.43
2018-12-05T15:00:28.620Z,69.66
2018-12-05T15:02:57.114Z,69.56
2018-12-05T15:05:25.617Z,69.37
2018-12-05T15:07:54.319Z,69.26
2018-12-05T15:10:22.898Z,69.41
2018-12-05T15:12:52.314Z,69.37
2018-12-05T15:15:20.865Z,69.15
2018-12-05T15:17:49.638Z,69.45
2018-12-05T15:20:18.190Z,69.45
2018-12-05T15:22:46.751Z,69.48
2018-12-05T15:25:15.261Z,69.52
2018-12-05T15:27:43.771Z,69.62
2018-12-05T15:30:12.749Z,69.60
2018-12-05T15:32:41.347Z,69.73
2018-12-05T15:35:10.053Z,69.77
2018-12-05T15:37:38.983Z,70.17
2018-12-05T15:40:07.559Z,70.32
2018-12-05T15:42:36.031Z,70.25
2018-12-05T15:45:07.114Z,70.12
2018-12-05T15:47:36.677Z,70.39
2018-12-05T15:50:06.959Z,70.25
2018-12-05T15:52:35.847Z,70.12
2018-12-05T15:55:05.019Z,70.25
2018-12-05T15:57:33.590Z,70.19
2018-12-05T16:00:03.755Z,69.97
2018-12-05T16:02:32.347Z,70.08
2018-12-05T16:05:00.916Z,69.93
2018-12-05T16:07:29.624Z,69.50
2018-12-05T16:09:58.153Z,69.82
2018-12-05T16:12:26.687Z,70.04
2018-12-05T16:14:55.592Z,69.64
2018-12-05T16:17:24.082Z,69.71
2018-12-05T16:19:52.632Z,69.68
2018-12-05T16:22:21.146Z,69.73
2018-12-05T16:24:49.648Z,69.24
2018-12-05T16:27:18.230Z,69.43
2018-12-05T16:29:46.881Z,69.55
2018-12-05T16:32:15.387Z,69.23
2018-12-05T16:34:43.916Z,68.92
2018-12-05T16:37:12.424Z,69.05
2018-12-05T16:39:40.962Z,69.30
2018-12-05T16:42:09.661Z,68.97
2018-12-05T16:44:38.187Z,69.29
2018-12-05T16:47:06.753Z,68.86
2018-12-05T16:49:35.278Z,69.05
2018-12-05T16:52:08.516Z,69.38
2018-12-05T16:54:37.532Z,69.42
2018-12-05T16:57:06.069Z,69.01
2018-12-05T16:59:34.653Z,69.15
2018-12-05T17:02:04.528Z,68.99
2018-12-05T17:04:33.084Z,68.95
2018-12-05T17:07:02.825Z,68.79
2018-12-05T17:09:31.335Z,69.15
2018-12-05T17:12:00.040Z,69.06
2018-12-05T17:14:28.773Z,69.09
2018-12-05T17:16:57.295Z,69.19
2018-12-05T17:19:25.800Z,69.33
2018-12-05T17:21:54.534Z,69.78
2018-12-05T17:24:23.204Z,69.75
2018-12-05T17:26:51.743Z,69.91
2018-12-05T17:29:20.311Z,69.98
2018-12-05T17:31:48.934Z,70.06
2018-12-05T17:34:17.464Z,69.97
2018-12-05T17:36:46.099Z,70.23
2018-12-05T17:39:14.796Z,69.95
2018-12-05T17:41:43.333Z,70.31
2018-12-05T17:44:11.923Z,70.17
2018-12-05T17:46:40.611Z,70.12
2018-12-05T17:49:09.160Z,70.33
2018-12-05T17:51:37.662Z,70.64
2018-12-05T17:54:06.384Z,70.62
2018-12-05T17:56:35.101Z,70.50
2018-12-05T17:59:05.277Z,70.35
2018-12-05T18:01:33.807Z,70.68
2018-12-05T18:04:04.161Z,70.28
2018-12-05T18:06:32.651Z,70.53
2018-12-05T18:09:03.279Z,70.49
2018-12-05T18:11:31.872Z,70.67
2018-12-05T18:14:00.444Z,71.06
2018-12-05T18:16:29.140Z,70.96
2018-12-05T18:18:57.656Z,71.18
2018-12-05T18:21:26.139Z,70.84
2018-12-05T18:23:54.649Z,71.55
2018-12-05T18:26:23.178Z,71.52
2018-12-05T18:28:51.835Z,71.54
2018-12-05T18:31:20.579Z,71.43
2018-12-05T18:33:49.150Z,71.42
2018-12-05T18:36:17.671Z,71.16
2018-12-05T18:38:46.199Z,71.38
2018-12-05T18:41:14.796Z,71.14
2018-12-05T18:43:43.348Z,71.54
2018-12-05T18:46:12.383Z,71.47
2018-12-05T18:48:41.035Z,71.20
2018-12-05T18:51:09.659Z,71.36
2018-12-05T18:53:38.544Z,71.17
2018-12-05T18:56:07.076Z,71.07
2018-12-05T18:58:35.904Z,71.07
2018-12-05T19:01:05.438Z,71.00
2018-12-05T19:03:34.106Z,71.02
2018-12-05T19:06:03.797Z,71.11
2018-12-05T19:08:34.365Z,70.85
2018-12-05T19:11:06.602Z,71.06
2018-12-05T19:13:39.265Z,71.17
2018-12-05T19:16:08.076Z,71.20
2018-12-05T19:18:36.937Z,71.16
2018-12-05T19:21:05.519Z,71.18
2018-12-05T19:23:34.385Z,71.48
2018-12-05T19:26:04.528Z,71.60
2018-12-05T19:28:33.868Z,71.59
2018-12-05T19:31:04.584Z,71.47
2018-12-05T19:33:33.551Z,71.57
2018-12-05T19:36:03.999Z,72.07
2018-12-05T19:38:36.293Z,72.40
2018-12-05T19:41:06.769Z,72.25
2018-12-05T19:43:35.580Z,72.90
2018-12-05T19:46:05.247Z,73.05
2018-12-05T19:48:33.905Z,73.46
2018-12-05T19:51:03.928Z,73.22
2018-12-05T19:53:32.742Z,73.66
2018-12-05T19:56:03.524Z,74.03
2018-12-05T19:58:32.082Z,73.86
2018-12-05T20:01:00.777Z,73.71
2018-12-05T20:03:29.329Z,73.52
2018-12-05T20:06:04.284Z,73.50
2018-12-05T20:08:32.901Z,73.71
2018-12-05T20:11:02.760Z,73.86
2018-12-05T20:13:36.735Z,73.96
2018-12-05T20:16:06.348Z,73.82
2018-12-05T20:18:35.007Z,74.03
2018-12-05T20:21:07.647Z,73.51
2018-12-05T20:23:36.290Z,73.55
2018-12-05T20:26:06.158Z,73.75
2018-12-05T20:28:35.321Z,73.49
2018-12-05T20:31:07.111Z,74.02
2018-12-05T20:33:35.702Z,74.06
2018-12-05T20:36:07.197Z,74.43
2018-12-05T20:38:35.948Z,74.67
2018-12-05T20:41:07.284Z,74.75
2018-12-05T20:43:35.909Z,75.22
2018-12-05T20:46:05.602Z,75.19
2018-12-05T20:48:34.704Z,75.27
2018-12-05T20:51:06.271Z,75.22
2018-12-05T20:53:35.298Z,75.13
2018-12-05T20:56:05.654Z,75.45
2018-12-05T20:58:34.720Z,75.56
2018-12-05T21:01:06.141Z,75.63
2018-12-05T21:03:34.725Z,75.52
2018-12-05T21:06:04.991Z,75.60
2018-12-05T21:08:35.368Z,75.84
2018-12-05T21:11:06.869Z,75.54
2018-12-05T21:13:35.442Z,75.68
2018-12-05T21:16:06.844Z,75.56
2018-12-05T21:18:35.444Z,75.59
2018-12-05T21:21:05.848Z,75.47
2018-12-05T21:23:34.436Z,75.09
2018-12-05T21:26:05.808Z,75.27
2018-12-05T21:28:34.804Z,74.88
2018-12-05T21:31:05.013Z,75.16
2018-12-05T21:33:33.675Z,75.15
2018-12-05T21:36:03.882Z,74.91
2018-12-05T21:38:33.143Z,74.84
2018-12-05T21:41:06.316Z,74.91
2018-12-05T21:43:35.707Z,74.79
2018-12-05T21:46:05.314Z,74.75
2018-12-05T21:48:34.057Z,74.81
2018-12-05T21:51:04.768Z,74.44
2018-12-05T21:53:33.311Z,74.70
2018-12-05T21:56:03.376Z,74.34
2018-12-05T21:58:31.897Z,74.61
2018-12-05T22:01:00.573Z,74.13
2018-12-05T22:03:29.628Z,74.18
2018-12-05T22:05:58.217Z,73.95
2018-12-05T22:08:26.854Z,73.92
2018-12-05T22:10:55.453Z,73.90
2018-12-05T22:13:23.971Z,73.65
2018-12-05T22:15:52.506Z,73.60
2018-12-05T22:18:21.038Z,73.49
2018-12-05T22:20:49.542Z,73.57
2018-12-05T22:23:18.312Z,73.41
2018-12-05T22:25:46.898Z,73.26
2018-12-05T22:28:15.501Z,73.02
2018-12-05T22:30:44.240Z,73.05
2018-12-05T22:33:12.761Z,72.65
2018-12-05T22:35:41.352Z,72.83
2018-12-05T22:38:10.203Z,72.67
2018-12-05T22:40:38.833Z,72.56
2018-12-05T22:43:07.402Z,72.72
2018-12-05T22:45:36.002Z,72.74
2018-12-05T22:48:05.591Z,72.45
2018-12-05T22:50:34.171Z,72.12
2018-12-05T22:53:05.174Z,72.39
2018-12-05T22:55:33.802Z,72.17
2018-12-05T22:58:04.429Z,72.55
2018-12-05T23:00:34.188Z,72.19
2018-12-05T23:03:04.315Z,72.29
2018-12-05T23:05:32.830Z,72.33
2018-12-05T23:08:04.648Z,72.52
2018-12-05T23:10:33.182Z,72.30
2018-12-05T23:13:04.836Z,72.32
2018-12-05T23:15:33.810Z,72.39
2018-12-05T23:18:03.879Z,72.99
2018-12-05T23:20:32.452Z,72.83
2018-12-05T23:23:03.215Z,72.92
2018-12-05T23:25:31.731Z,73.19
2018-12-05T23:28:00.415Z,73.32
2018-12-05T23:30:29.042Z,73.43
2018-12-05T23:32:57.630Z,73.71
2018-12-05T23:35:26.169Z,73.48
2018-12-05T23:37:54.747Z,73.37
2018-12-05T23:40:23.358Z,73.67
2018-12-05T23:42:51.927Z,73.67
2018-12-05T23:45:21.194Z,74.10
2018-12-05T23:47:49.697Z,74.21
2018-12-05T23:50:18.291Z,74.19
2018-12-05T23:52:47.031Z,74.25
2018-12-05T23:55:15.526Z,74.67
2018-12-05T23:57:44.198Z,74.35
